Time;durP1;ratioP1;P1;durP2;ratioP2;P2;SDS_P1;SDS_P2;PMS_P1;PMS_P2;Temp;Humidity;BMP_temperature;BMP_pressure;BME280_temperature;BME280_humidity;BME280_pressure;Samples;Min_cycle;Max_cycle;Signal;HPM_P1;HPM_P2
2022/03/04 00:01:08;;;;;;;;;;;;;;;-3.26;63.16;98542.16;5050916;28;19928;-60
2022/03/04 00:03:33;;;;;;;;;;;;;;;-3.27;63.36;98547.47;5052417;28;19931;-62
2022/03/04 00:05:59;;;;;;;;;;;;;;;-3.30;63.09;98545.22;5060515;28;20062;-61
2022/03/04 00:08:24;;;;;;;;;;;;;;;-3.36;63.54;98558.88;5069354;28;19963;-62
2022/03/04 00:10:50;;;;;;;;;;;;;;;-3.38;63.49;98561.63;5052275;28;19936;-61
2022/03/04 00:13:16;;;;;;;;;;;;;;;-3.37;63.93;98570.22;5052111;28;20496;-62
2022/03/04 00:15:41;;;;;;;;;;;;;;;-3.43;64.32;98564.72;5052080;28;20295;-60
2022/03/04 00:18:07;;;;;;;;;;;;;;;-3.49;64.57;98572.38;5052076;28;20456;-63
2022/03/04 00:20:32;;;;;;;;;;;;;;;-3.53;65.29;98577.06;5053057;28;20032;-61
2022/03/04 00:22:58;;;;;;;;;;;;;;;-3.58;64.75;98573.38;5051971;28;19931;-62
2022/03/04 00:25:23;;;;;;;;;;;;;;;-3.61;64.95;98574.50;5051817;28;19970;-61
2022/03/04 00:27:49;;;;;;;;;;;;;;;-3.62;66.03;98575.47;5050362;28;19960;-63
2022/03/04 00:30:15;;;;;;;;;;;;;;;-3.64;66.03;98574.03;5050322;28;19979;-62
2022/03/04 00:32:40;;;;;;;;;;;;;;;-3.73;65.71;98570.66;5050648;28;20016;-63
2022/03/04 00:35:06;;;;;;;;;;;;;;;-3.76;65.87;98576.97;5050520;28;19932;-62
2022/03/04 00:37:32;;;;;;;;;;;;;;;-3.78;66.08;98583.28;5055556;28;19951;-61
2022/03/04 00:39:58;;;;;;;;;;;;;;;-3.79;66.87;98582.47;5071190;28;20002;-60
2022/03/04 00:42:23;;;;;;;;;;;;;;;-3.77;67.08;98580.53;5064344;28;19929;-61
2022/03/04 00:44:49;;;;;;;;;;;;;;;-3.75;66.56;98578.59;5050331;28;20394;-61
2022/03/04 00:47:15;;;;;;;;;;;;;;;-3.75;66.47;98582.97;5052121;28;20301;-62
2022/03/04 00:49:40;;;;;;;;;;;;;;;-3.75;66.39;98580.38;5027073;28;19993;-62
2022/03/04 00:52:06;;;;;;;;;;;;;;;-3.74;66.66;98584.56;5074655;28;20395;-60
2022/03/04 00:54:31;;;;;;;;;;;;;;;-3.82;67.17;98588.00;5078360;28;20437;-62
2022/03/04 00:56:57;;;;;;;;;;;;;;;-3.85;67.12;98595.25;5078579;28;19977;-62
2022/03/04 00:59:23;;;;;;;;;;;;;;;-3.86;67.82;98591.06;5076191;28;20137;-61
2022/03/04 01:01:48;;;;;;;;;;;;;;;-3.91;68.07;98592.38;5077092;28;20043;-64
2022/03/04 01:04:14;;;;;;;;;;;;;;;-3.95;68.04;98587.69;5078316;28;19924;-63
2022/03/04 01:06:39;;;;;;;;;;;;;;;-3.99;68.11;98591.56;5074037;28;20180;-62
2022/03/04 01:09:05;;;;;;;;;;;;;;;-4.00;67.81;98587.34;5056900;28;19924;-63
2022/03/04 01:11:31;;;;;;;;;;;;;;;-4.14;68.79;98584.47;5058360;28;19935;-63
2022/03/04 01:13:56;;;;;;;;;;;;;;;-4.19;68.98;98594.50;5058032;28;19970;-63
2022/03/04 01:16:22;;;;;;;;;;;;;;;-4.16;68.46;98591.56;5056959;28;19955;-64
2022/03/04 01:18:47;;;;;;;;;;;;;;;-4.24;70.09;98591.56;5056571;28;19925;-63
2022/03/04 01:21:14;;;;;;;;;;;;;;;-4.28;69.91;98592.06;5068205;28;20310;-62
2022/03/04 01:23:39;;;;;;;;;;;;;;;-4.31;69.91;98595.78;5071139;28;19936;-62
2022/03/04 01:26:05;;;;;;;;;;;;;;;-4.32;70.45;98594.19;5040088;28;19929;-62
2022/03/04 01:28:31;;;;;;;;;;;;;;;-4.36;70.61;98592.88;5056554;28;19924;-63
2022/03/04 01:30:56;;;;;;;;;;;;;;;-4.35;70.80;98590.13;5056699;28;19929;-63
2022/03/04 01:33:22;;;;;;;;;;;;;;;-4.37;70.77;98586.09;5058043;28;19925;-61
2022/03/04 01:35:48;;;;;;;;;;;;;;;-4.35;71.22;98590.13;5056508;28;20533;-60
2022/03/04 01:38:13;;;;;;;;;;;;;;;-4.34;71.37;98586.56;5057980;28;19931;-64
2022/03/04 01:40:39;;;;;;;;;;;;;;;-4.36;71.37;98585.91;5057942;28;20295;-63
2022/03/04 01:43:05;;;;;;;;;;;;;;;-4.44;71.71;98580.75;5057800;28;19971;-63
2022/03/04 01:45:30;;;;;;;;;;;;;;;-4.49;72.25;98577.84;5056593;28;20011;-62
2022/03/04 01:47:56;;;;;;;;;;;;;;;-4.44;71.95;98583.34;5056719;28;19932;-62
2022/03/04 01:50:25;;;;;;;;;;;;;;;-4.47;72.32;98578.50;5056265;28;19929;-63
2022/03/04 01:52:50;;;;;;;;;;;;;;;-4.51;72.84;98578.97;5057998;28;19928;-61
2022/03/04 01:55:16;;;;;;;;;;;;;;;-4.50;72.79;98576.22;5056488;28;19925;-62
2022/03/04 01:57:41;;;;;;;;;;;;;;;-4.49;72.55;98572.66;5058277;28;19933;-62
2022/03/04 02:00:08;;;;;;;;;;;;;;;-4.55;73.18;98568.13;5056825;28;19920;-61
2022/03/04 02:02:38;;;;;;;;;;;;;;;-4.58;73.42;98573.63;5058207;28;19933;-63
2022/03/04 02:05:03;;;;;;;;;;;;;;;-4.56;73.25;98561.31;5053767;28;20455;-63
2022/03/04 02:07:29;;;;;;;;;;;;;;;-4.59;73.03;98553.88;5036823;28;20279;-62
2022/03/04 02:09:55;;;;;;;;;;;;;;;-4.59;73.21;98552.13;5053411;28;19997;-60
2022/03/04 02:12:20;;;;;;;;;;;;;;;-4.64;73.92;98554.38;5055727;28;19960;-61
2022/03/04 02:14:46;;;;;;;;;;;;;;;-4.59;73.40;98546.13;5054816;28;20062;-63
2022/03/04 02:17:11;;;;;;;;;;;;;;;-4.65;74.06;98546.78;5054715;28;20413;-62
2022/03/04 02:19:37;;;;;;;;;;;;;;;-4.75;74.71;98546.94;5053303;28;19925;-61
2022/03/04 02:22:03;;;;;;;;;;;;;;;-4.63;74.37;98550.81;5053093;28;20009;-60
2022/03/04 02:24:29;;;;;;;;;;;;;;;-4.70;74.45;98549.06;5068586;28;20394;-62
2022/03/04 02:26:56;;;;;;;;;;;;;;;-4.73;74.37;98539.03;5074544;28;20068;-61
2022/03/04 02:29:22;;;;;;;;;;;;;;;-4.70;74.67;98536.94;5074028;28;19924;-60
2022/03/04 02:31:47;;;;;;;;;;;;;;;-4.68;74.64;98534.97;5074054;28;20114;-61
2022/03/04 02:34:13;;;;;;;;;;;;;;;-4.78;74.49;98538.69;5074314;28;19950;-62
2022/03/04 02:36:39;;;;;;;;;;;;;;;-4.87;74.75;98540.47;5056027;28;20105;-62
2022/03/04 02:39:05;;;;;;;;;;;;;;;-4.92;74.98;98540.94;5071810;28;19970;-63
2022/03/04 02:41:31;;;;;;;;;;;;;;;-4.85;75.30;98541.94;5054141;28;19933;-60
2022/03/04 02:43:56;;;;;;;;;;;;;;;-4.87;75.33;98543.84;5053569;28;19939;-64
2022/03/04 02:46:22;;;;;;;;;;;;;;;-4.92;75.50;98548.69;5053821;28;19967;-63
2022/03/04 02:48:47;;;;;;;;;;;;;;;-4.95;75.25;98535.28;5053755;28;20317;-59
2022/03/04 02:51:13;;;;;;;;;;;;;;;-5.09;75.54;98547.88;5052217;28;20382;-62
2022/03/04 02:53:39;;;;;;;;;;;;;;;-5.18;75.82;98541.03;5053612;28;19929;-62
2022/03/04 02:56:04;;;;;;;;;;;;;;;-5.13;75.94;98540.56;5052200;28;19929;-61
2022/03/04 02:58:30;;;;;;;;;;;;;;;-5.13;76.42;98546.53;5053530;28;19929;-62
2022/03/04 03:00:55;;;;;;;;;;;;;;;-5.12;76.52;98545.56;5053505;28;20431;-61
2022/03/04 03:03:21;;;;;;;;;;;;;;;-5.07;76.72;98548.50;5053718;28;19932;-61
2022/03/04 03:05:46;;;;;;;;;;;;;;;-5.13;76.95;98550.91;5068796;28;20365;-61
2022/03/04 03:08:12;;;;;;;;;;;;;;;-5.11;77.48;98547.19;5073243;28;19925;-61
2022/03/04 03:10:39;;;;;;;;;;;;;;;-5.04;76.93;98553.34;5072060;28;19978;-61
2022/03/04 03:13:05;;;;;;;;;;;;;;;-4.99;76.50;98542.53;5072876;28;19979;-64
2022/03/04 03:15:30;;;;;;;;;;;;;;;-5.03;76.65;98542.06;5071727;28;20352;-60
2022/03/04 03:17:56;;;;;;;;;;;;;;;-4.90;76.57;98556.28;5072635;28;20021;-60
2022/03/04 03:20:22;;;;;;;;;;;;;;;-4.86;75.59;98558.38;5060389;28;19927;-62
2022/03/04 03:22:48;;;;;;;;;;;;;;;-4.81;75.74;98556.13;5051774;28;19925;-63
2022/03/04 03:25:14;;;;;;;;;;;;;;;-4.80;75.67;98556.94;5054303;28;19924;-61
2022/03/04 03:27:41;;;;;;;;;;;;;;;-4.81;76.71;98565.69;5053372;28;20387;-61
2022/03/04 03:30:07;;;;;;;;;;;;;;;-4.83;76.27;98570.19;5051868;28;19958;-61
2022/03/04 03:32:32;;;;;;;;;;;;;;;-4.85;77.08;98564.38;5053369;28;19933;-61
2022/03/04 03:34:59;;;;;;;;;;;;;;;-4.69;76.25;98569.56;5034881;28;20356;-60
2022/03/04 03:37:24;;;;;;;;;;;;;;;-4.74;76.86;98578.78;5051814;28;19929;-61
2022/03/04 03:39:50;;;;;;;;;;;;;;;-4.63;75.80;98578.47;5051218;28;19936;-62
2022/03/04 03:42:15;;;;;;;;;;;;;;;-4.72;76.59;98592.34;5053103;28;19936;-61
2022/03/04 03:44:41;;;;;;;;;;;;;;;-4.70;76.37;98587.84;5052805;28;19929;-61
2022/03/04 03:47:07;;;;;;;;;;;;;;;-4.65;76.54;98586.38;5052979;28;19943;-60
2022/03/04 03:49:32;;;;;;;;;;;;;;;-4.49;75.77;98588.19;5052712;28;19924;-62
2022/03/04 03:51:58;;;;;;;;;;;;;;;-4.53;76.53;98581.69;5052086;28;20019;-61
2022/03/04 03:54:23;;;;;;;;;;;;;;;-4.57;76.20;98585.59;5051320;28;19957;-61
2022/03/04 03:56:49;;;;;;;;;;;;;;;-4.62;76.50;98580.06;5052578;28;19940;-60
2022/03/04 03:59:15;;;;;;;;;;;;;;;-4.46;75.95;98580.09;5051426;28;20309;-62
2022/03/04 04:01:40;;;;;;;;;;;;;;;-4.64;76.38;98597.56;5066684;28;20382;-60
2022/03/04 04:04:12;;;;;;;;;;;;;;;-4.49;75.95;98585.59;5072621;28;19924;-62
2022/03/04 04:06:39;;;;;;;;;;;;;;;-4.48;76.56;98586.41;5072244;28;19951;-61
2022/03/04 04:09:05;;;;;;;;;;;;;;;-4.52;76.18;98585.13;5070678;28;19925;-61
2022/03/04 04:11:35;;;;;;;;;;;;;;;-4.46;75.86;98582.69;5071986;28;20396;-62
2022/03/04 04:14:07;;;;;;;;;;;;;;;-4.31;75.39;98588.03;5072102;28;20031;-62
2022/03/04 04:16:32;;;;;;;;;;;;;;;-4.25;75.09;98589.97;5071991;28;20015;-61
2022/03/04 04:18:58;;;;;;;;;;;;;;;-4.30;75.23;98591.41;5071989;28;20440;-61
2022/03/04 04:21:24;;;;;;;;;;;;;;;-4.25;75.28;98600.31;5072084;28;20377;-62
2022/03/04 04:23:50;;;;;;;;;;;;;;;-4.24;75.08;98621.81;5067400;28;20389;-62
2022/03/04 04:26:16;;;;;;;;;;;;;;;-4.24;75.11;98616.66;5055533;28;20035;-61
2022/03/04 04:28:41;;;;;;;;;;;;;;;-4.23;75.45;98618.28;5050539;28;19929;-61
2022/03/04 04:31:07;;;;;;;;;;;;;;;-4.20;74.91;98623.13;5051787;28;19928;-61
2022/03/04 04:33:32;;;;;;;;;;;;;;;-4.36;75.96;98618.75;5052024;28;20002;-60
2022/03/04 04:35:58;;;;;;;;;;;;;;;-4.34;75.64;98617.63;5051709;28;19928;-62
2022/03/04 04:38:24;;;;;;;;;;;;;;;-4.34;75.43;98620.19;5050312;28;20356;-62
2022/03/04 04:40:49;;;;;;;;;;;;;;;-4.28;75.36;98621.34;5033455;28;19939;-62
2022/03/04 04:43:15;;;;;;;;;;;;;;;-4.14;74.96;98615.53;5038571;28;19924;-62
2022/03/04 04:45:41;;;;;;;;;;;;;;;-4.24;75.56;98634.75;5071707;28;19924;-61
2022/03/04 04:48:06;;;;;;;;;;;;;;;-4.28;75.80;98636.88;5071076;28;19931;-62
2022/03/04 04:50:32;;;;;;;;;;;;;;;-4.24;75.33;98627.81;5072021;28;20301;-60
2022/03/04 04:52:58;;;;;;;;;;;;;;;-4.30;75.31;98619.88;5070535;28;20610;-61
2022/03/04 04:55:23;;;;;;;;;;;;;;;-4.23;75.76;98618.28;5071653;28;19931;-61
2022/03/04 04:57:49;;;;;;;;;;;;;;;-4.09;75.17;98616.81;5069753;28;20413;-61
2022/03/04 05:00:15;;;;;;;;;;;;;;;-4.08;75.24;98632.19;5068586;28;19928;-61
2022/03/04 05:02:40;;;;;;;;;;;;;;;-4.08;74.38;98637.38;5052194;28;20267;-59
2022/03/04 05:05:06;;;;;;;;;;;;;;;-4.13;74.62;98629.28;5051288;28;19931;-61
2022/03/04 05:07:31;;;;;;;;;;;;;;;-4.12;75.39;98634.31;5051669;28;19983;-60
2022/03/04 05:09:57;;;;;;;;;;;;;;;-4.14;74.53;98623.28;5050904;28;19931;-61
2022/03/04 05:12:23;;;;;;;;;;;;;;;-4.03;74.64;98629.94;5053555;28;19964;-62
2022/03/04 05:14:48;;;;;;;;;;;;;;;-4.00;74.47;98633.94;5069988;28;19931;-61
2022/03/04 05:17:14;;;;;;;;;;;;;;;-4.04;74.35;98650.78;5070841;28;19970;-62
2022/03/04 05:19:39;;;;;;;;;;;;;;;-4.14;75.06;98635.44;5069928;28;19928;-63
2022/03/04 05:22:05;;;;;;;;;;;;;;;-4.11;75.00;98643.66;5071211;28;19929;-61
2022/03/04 05:24:30;;;;;;;;;;;;;;;-3.96;74.53;98638.66;5071112;28;19967;-62
2022/03/04 05:26:56;;;;;;;;;;;;;;;-4.00;73.55;98652.91;5069358;28;19935;-60
2022/03/04 05:29:22;;;;;;;;;;;;;;;-3.95;74.48;98649.81;5051277;28;19924;-60
2022/03/04 05:31:48;;;;;;;;;;;;;;;-3.83;74.14;98655.47;5049877;28;20438;-60
2022/03/04 05:34:15;;;;;;;;;;;;;;;-3.88;74.32;98655.97;5050922;28;19932;-63
2022/03/04 05:36:40;;;;;;;;;;;;;;;-3.91;73.73;98670.06;5049617;28;20337;-61
2022/03/04 05:39:06;;;;;;;;;;;;;;;-3.83;73.92;98664.03;5052356;28;19924;-62
2022/03/04 05:41:31;;;;;;;;;;;;;;;-3.79;73.99;98667.13;5054898;28;20279;-62
2022/03/04 05:43:57;;;;;;;;;;;;;;;-3.70;72.60;98668.75;5055850;28;19931;-62
2022/03/04 05:46:23;;;;;;;;;;;;;;;-3.57;72.70;98660.47;5053434;28;20311;-61
2022/03/04 05:48:49;;;;;;;;;;;;;;;-3.64;72.30;98669.88;5053413;28;19932;-62
2022/03/04 05:51:17;;;;;;;;;;;;;;;-3.63;72.13;98663.72;5036917;28;19933;-62
2022/03/04 05:53:42;;;;;;;;;;;;;;;-3.74;73.01;98667.44;5055586;28;19924;-64
2022/03/04 05:56:09;;;;;;;;;;;;;;;-3.90;72.86;98689.78;5053069;28;19929;-63
2022/03/04 05:58:36;;;;;;;;;;;;;;;-3.81;73.25;98700.94;5054500;28;19924;-61
2022/03/04 06:01:02;;;;;;;;;;;;;;;-3.77;73.16;98697.06;5036418;28;19963;-62
2022/03/04 06:03:28;;;;;;;;;;;;;;;-3.76;73.61;98685.75;5055800;28;19924;-63
2022/03/04 06:05:53;;;;;;;;;;;;;;;-3.59;71.81;98670.97;5053160;28;19973;-62
2022/03/04 06:08:19;;;;;;;;;;;;;;;-3.46;72.06;98678.25;5054111;28;20390;-64
2022/03/04 06:10:45;;;;;;;;;;;;;;;-3.45;71.39;98670.31;5054109;28;19929;-62
2022/03/04 06:13:11;;;;;;;;;;;;;;;-3.56;71.64;98670.69;5054305;28;19924;-63
2022/03/04 06:15:36;;;;;;;;;;;;;;;-3.26;71.42;98669.16;5054178;28;19932;-62
2022/03/04 06:18:02;;;;;;;;;;;;;;;-3.08;70.67;98668.94;5055107;28;19924;-64
2022/03/04 06:20:33;;;;;;;;;;;;;;;-3.02;69.76;98662.28;5053118;28;20298;-62
2022/03/04 06:23:17;;;;;;;;;;;;;;;-3.04;69.75;98672.78;5039931;28;19929;-62
2022/03/04 06:25:43;;;;;;;;;;;;;;;-3.12;69.74;98666.81;5053546;28;19936;-61
2022/03/04 06:28:08;;;;;;;;;;;;;;;-3.07;70.29;98672.31;5067501;28;20430;-64
2022/03/04 06:30:36;;;;;;;;;;;;;;;-3.09;69.48;98667.31;5071278;28;19959;-62
2022/03/04 06:35:46;;;;;;;;;;;;;;;-2.98;69.73;98681.69;5072042;28;19971;-60
2022/03/04 06:38:13;;;;;;;;;;;;;;;-2.84;69.33;98667.22;5071705;28;19963;-61
2022/03/04 06:40:38;;;;;;;;;;;;;;;-2.68;68.45;98674.09;5069745;28;19924;-60
2022/03/04 06:43:04;;;;;;;;;;;;;;;-2.64;68.08;98672.81;5058746;28;19951;-63
2022/03/04 06:45:32;;;;;;;;;;;;;;;-2.53;67.66;98669.81;5055145;28;20216;-62
2022/03/04 06:47:58;;;;;;;;;;;;;;;-2.47;67.56;98665.72;5060732;28;20036;-63
2022/03/04 06:50:23;;;;;;;;;;;;;;;-2.38;66.94;98659.50;5052966;28;19931;-63
2022/03/04 06:52:52;;;;;;;;;;;;;;;-2.38;66.59;98667.28;5053635;28;19932;-64
2022/03/04 06:55:18;;;;;;;;;;;;;;;-2.33;66.76;98662.38;5053772;28;19970;-62
2022/03/04 06:57:44;;;;;;;;;;;;;;;-2.32;66.67;98671.81;5053936;28;19925;-63
2022/03/04 07:00:10;;;;;;;;;;;;;;;-2.32;66.26;98684.78;5053712;28;19925;-62
2022/03/04 07:02:37;;;;;;;;;;;;;;;-2.23;66.16;98693.34;5052333;28;19925;-62
2022/03/04 07:05:03;;;;;;;;;;;;;;;-2.34;66.31;98668.56;5055572;28;20395;-62
2022/03/04 07:07:29;;;;;;;;;;;;;;;-2.38;66.37;98667.28;5071826;28;19926;-63
2022/03/04 07:09:54;;;;;;;;;;;;;;;-2.30;66.06;98681.03;5072712;28;20424;-63
2022/03/04 07:12:20;;;;;;;;;;;;;;;-2.29;66.04;98690.44;5072179;28;19924;-63
2022/03/04 07:14:46;;;;;;;;;;;;;;;-2.21;65.99;98679.19;5051467;28;19932;-60
2022/03/04 07:17:12;;;;;;;;;;;;;;;-2.08;65.58;98683.81;5030847;28;19974;-62
2022/03/04 07:19:38;;;;;;;;;;;;;;;-2.13;65.22;98691.31;5047430;28;20034;-61
2022/03/04 07:22:04;;;;;;;;;;;;;;;-2.09;65.36;98680.41;5048791;28;19925;-63
2022/03/04 07:24:29;;;;;;;;;;;;;;;-2.02;65.15;98685.72;5053127;28;19932;-63
2022/03/04 07:26:55;;;;;;;;;;;;;;;-2.04;65.47;98689.47;5035398;28;19924;-62
2022/03/04 07:29:20;;;;;;;;;;;;;;;-2.03;65.56;98678.88;5067557;28;19939;-63
2022/03/04 07:31:46;;;;;;;;;;;;;;;-1.89;65.15;98674.75;5070941;28;19960;-62
2022/03/04 07:34:11;;;;;;;;;;;;;;;-1.70;64.59;98671.66;5057576;28;19935;-62
2022/03/04 07:36:37;;;;;;;;;;;;;;;-1.50;63.70;98682.38;5067325;28;19966;-63
2022/03/04 07:39:03;;;;;;;;;;;;;;;-1.51;63.63;98677.34;5058084;28;19929;-61
2022/03/04 07:41:28;;;;;;;;;;;;;;;-1.56;63.84;98680.44;5029377;28;19925;-62
2022/03/04 07:43:54;;;;;;;;;;;;;;;-1.53;64.03;98681.88;5050896;28;19929;-64
2022/03/04 07:46:22;;;;;;;;;;;;;;;-1.54;63.94;98672.50;5047289;28;19936;-61
2022/03/04 07:48:47;;;;;;;;;;;;;;;-1.24;63.30;98678.53;5048570;28;20642;-63
2022/03/04 07:51:13;;;;;;;;;;;;;;;-1.14;62.79;98673.88;5049053;28;20407;-62
2022/03/04 07:53:38;;;;;;;;;;;;;;;-1.15;62.63;98680.88;5069234;28;19935;-60
2022/03/04 07:56:04;;;;;;;;;;;;;;;-1.27;62.65;98681.47;5066216;28;20489;-64
2022/03/04 07:58:30;;;;;;;;;;;;;;;-1.18;62.45;98688.22;5067785;28;19932;-62
2022/03/04 08:00:55;;;;;;;;;;;;;;;-1.21;62.31;98689.38;5061073;28;19932;-60
2022/03/04 08:03:21;;;;;;;;;;;;;;;-1.18;62.42;98691.63;5049158;28;19935;-61
2022/03/04 08:05:46;;;;;;;;;;;;;;;-1.16;62.40;98696.66;5048304;28;19925;-61
2022/03/04 08:08:12;;;;;;;;;;;;;;;-0.90;61.82;98724.81;5048003;28;20043;-63
2022/03/04 08:10:37;;;;;;;;;;;;;;;-1.07;61.39;98713.78;5047708;28;19968;-57
2022/03/04 08:13:04;;;;;;;;;;;;;;;-1.25;62.56;98710.72;5050054;28;19929;-59
2022/03/04 08:15:30;;;;;;;;;;;;;;;-1.19;62.24;98703.00;5047255;28;19953;-59
2022/03/04 08:17:55;;;;;;;;;;;;;;;-1.30;62.40;98708.63;5049455;28;20013;-59
2022/03/04 08:20:21;;;;;;;;;;;;;;;-1.07;61.79;98699.97;5049967;28;19953;-62
2022/03/04 08:22:49;;;;;;;;;;;;;;;-1.03;61.75;98696.00;5049210;28;20449;-60
2022/03/04 08:25:15;;;;;;;;;;;;;;;-1.03;61.66;98714.22;5052993;28;19928;-59
2022/03/04 08:27:41;;;;;;;;;;;;;;;-0.90;61.21;98696.19;5066683;28;20465;-60
2022/03/04 08:30:08;;;;;;;;;;;;;;;-0.70;60.93;98702.47;5068555;28;20455;-59
2022/03/04 08:32:34;;;;;;;;;;;;;;;-0.65;60.46;98694.09;5060221;28;20023;-59
2022/03/04 08:34:59;;;;;;;;;;;;;;;-0.65;60.72;98699.31;5050021;28;19929;-58
2022/03/04 08:37:25;;;;;;;;;;;;;;;-0.75;61.21;98698.78;5066798;28;19924;-58
2022/03/04 08:39:51;;;;;;;;;;;;;;;-0.60;60.52;98693.56;5068795;28;19935;-59
2022/03/04 08:42:16;;;;;;;;;;;;;;;-0.62;60.70;98704.16;5053148;28;19967;-61
2022/03/04 08:44:42;;;;;;;;;;;;;;;-0.61;60.71;98707.56;5050966;28;19963;-60
2022/03/04 08:47:08;;;;;;;;;;;;;;;-0.73;60.96;98700.22;5050550;28;20279;-60
2022/03/04 08:49:34;;;;;;;;;;;;;;;-0.67;60.62;98701.31;5049885;28;20426;-62
2022/03/04 08:51:59;;;;;;;;;;;;;;;-0.64;60.77;98711.34;5050731;28;19931;-60
2022/03/04 08:54:25;;;;;;;;;;;;;;;-0.60;60.44;98709.97;5050683;28;19928;-61
2022/03/04 08:56:51;;;;;;;;;;;;;;;-0.67;60.93;98711.72;5055039;28;20297;-61
2022/03/04 08:59:16;;;;;;;;;;;;;;;-0.60;60.83;98703.97;5050867;28;19929;-60
2022/03/04 09:01:42;;;;;;;;;;;;;;;-0.58;60.51;98707.22;5061204;28;19954;-59
2022/03/04 09:04:08;;;;;;;;;;;;;;;-0.45;60.05;98704.75;5068749;28;19952;-59
2022/03/04 09:06:33;;;;;;;;;;;;;;;-0.32;60.49;98701.50;5060486;28;19924;-61
2022/03/04 09:08:59;;;;;;;;;;;;;;;-0.37;60.56;98698.63;5066151;28;19967;-61
2022/03/04 09:11:24;;;;;;;;;;;;;;;-0.27;60.16;98701.75;5069690;28;19959;-61
2022/03/04 09:13:50;;;;;;;;;;;;;;;-0.41;60.57;98706.00;5073056;28;20387;-62
2022/03/04 09:16:16;;;;;;;;;;;;;;;-0.37;60.28;98709.06;5070215;28;19924;-58
2022/03/04 09:18:42;;;;;;;;;;;;;;;-0.34;60.44;98711.28;5054238;28;20067;-61
2022/03/04 09:21:08;;;;;;;;;;;;;;;-0.14;60.07;98695.88;5053001;28;20390;-59
2022/03/04 09:23:34;;;;;;;;;;;;;;;0.03;59.08;98699.84;5054596;28;19936;-60
2022/03/04 09:26:00;;;;;;;;;;;;;;;-0.10;58.90;98703.13;5054385;28;19929;-59
2022/03/04 09:28:27;;;;;;;;;;;;;;;-0.20;59.41;98701.81;5070556;28;19928;-61
2022/03/04 09:30:52;;;;;;;;;;;;;;;-0.08;59.06;98710.75;5053966;28;19925;-63
2022/03/04 09:33:18;;;;;;;;;;;;;;;0.06;59.17;98690.84;5053293;28;20213;-60
2022/03/04 09:35:43;;;;;;;;;;;;;;;0.06;58.90;98698.66;5044543;28;19924;-61
2022/03/04 09:38:09;;;;;;;;;;;;;;;0.16;59.34;98694.75;5053520;28;19928;-63
2022/03/04 09:40:34;;;;;;;;;;;;;;;0.19;57.96;98696.19;5068534;28;19947;-59
2022/03/04 09:43:00;;;;;;;;;;;;;;;0.19;58.36;98702.19;5050646;28;20504;-60
2022/03/04 09:45:26;;;;;;;;;;;;;;;0.11;58.67;98702.31;5060055;28;19947;-59
2022/03/04 09:47:52;;;;;;;;;;;;;;;0.18;58.69;98702.41;5067852;28;20282;-61
2022/03/04 09:50:17;;;;;;;;;;;;;;;0.13;58.08;98697.72;5068301;28;20024;-60
2022/03/04 09:52:43;;;;;;;;;;;;;;;0.13;58.80;98695.13;5069634;28;20416;-60
2022/03/04 09:55:09;;;;;;;;;;;;;;;0.16;58.98;98699.16;5069397;28;20294;-58
2022/03/04 09:57:35;;;;;;;;;;;;;;;0.20;58.88;98708.22;5069990;28;20302;-60
2022/03/04 10:00:01;;;;;;;;;;;;;;;0.18;58.28;98703.19;5070064;28;20001;-56
2022/03/04 10:02:32;;;;;;;;;;;;;;;0.06;59.21;98702.09;5070962;28;19924;-60
2022/03/04 10:04:58;;;;;;;;;;;;;;;0.19;58.58;98690.97;5048320;28;19929;-59
2022/03/04 10:07:24;;;;;;;;;;;;;;;0.25;58.08;98697.22;5049049;28;19948;-56
2022/03/04 10:09:49;;;;;;;;;;;;;;;0.09;58.69;98696.50;5049591;28;20401;-59
2022/03/04 10:12:16;;;;;;;;;;;;;;;0.14;58.52;98701.13;5050082;28;20317;-59
2022/03/04 10:14:55;;;;;;;;;;;;;;;0.22;59.10;98687.97;5051965;28;19939;-58
2022/03/04 10:17:21;;;;;;;;;;;;;;;0.28;58.27;98702.88;5051606;28;19932;-58
2022/03/04 10:19:51;;;;;;;;;;;;;;;0.26;58.02;98689.22;5049557;28;19973;-57
2022/03/04 10:22:16;;;;;;;;;;;;;;;0.10;59.32;98698.09;5051522;28;19924;-59
2022/03/04 10:24:42;;;;;;;;;;;;;;;0.11;59.32;98689.28;5051513;28;20603;-59
2022/03/04 10:27:08;;;;;;;;;;;;;;;0.26;58.70;98694.41;5053342;28;19924;-60
2022/03/04 10:29:35;;;;;;;;;;;;;;;0.22;58.96;98687.97;5063067;28;20019;-57
2022/03/04 10:32:07;;;;;;;;;;;;;;;0.37;58.20;98687.91;5059328;28;19925;-58
2022/03/04 10:34:45;;;;;;;;;;;;;;;0.46;58.20;98684.16;5053293;28;20061;-61
2022/03/04 10:37:11;;;;;;;;;;;;;;;0.25;58.09;98697.22;5050375;28;20393;-60
2022/03/04 10:39:39;;;;;;;;;;;;;;;0.29;58.03;98682.81;5058755;28;19975;-60
2022/03/04 10:42:05;;;;;;;;;;;;;;;0.40;57.40;98684.91;5033101;28;20376;-57
2022/03/04 10:44:30;;;;;;;;;;;;;;;0.35;57.89;98682.88;5033404;28;20024;-61
2022/03/04 10:46:56;;;;;;;;;;;;;;;0.30;58.05;98681.84;5049777;28;20035;-60
2022/03/04 10:49:27;;;;;;;;;;;;;;;0.42;57.21;98688.97;5049971;28;20050;-58
2022/03/04 10:52:06;;;;;;;;;;;;;;;0.37;57.39;98693.13;5049397;28;20353;-57
2022/03/04 10:54:31;;;;;;;;;;;;;;;0.35;57.21;98702.91;5050194;28;19928;-57
2022/03/04 10:56:57;;;;;;;;;;;;;;;0.39;57.44;98686.72;5017331;28;20317;-60
2022/03/04 10:59:23;;;;;;;;;;;;;;;0.43;57.86;98679.31;5050857;28;19928;-59
2022/03/04 11:01:49;;;;;;;;;;;;;;;0.48;57.42;98676.16;5050473;28;20015;-59
2022/03/04 11:04:18;;;;;;;;;;;;;;;0.55;57.10;98675.19;5050391;28;19936;-58
2022/03/04 11:06:47;;;;;;;;;;;;;;;0.66;57.41;98666.84;5053442;28;19995;-59
2022/03/04 11:09:16;;;;;;;;;;;;;;;0.76;56.83;98673.53;5051555;28;20237;-60
2022/03/04 11:11:45;;;;;;;;;;;;;;;0.82;55.59;98675.38;5050636;28;19928;-61
2022/03/04 11:14:12;;;;;;;;;;;;;;;0.68;56.31;98664.06;5062588;28;19958;-59
2022/03/04 11:16:38;;;;;;;;;;;;;;;0.48;56.66;98682.19;5056524;28;19971;-58
2022/03/04 11:19:04;;;;;;;;;;;;;;;0.51;56.15;98671.38;5056120;28;19972;-59
2022/03/04 11:21:30;;;;;;;;;;;;;;;0.52;57.01;98670.38;5051574;28;19974;-61
2022/03/04 11:23:56;;;;;;;;;;;;;;;0.57;56.31;98648.94;5061862;28;19960;-59
2022/03/04 11:26:21;;;;;;;;;;;;;;;0.74;56.07;98654.66;5049715;28;19971;-58
2022/03/04 11:28:49;;;;;;;;;;;;;;;0.62;56.09;98686.50;5050887;28;20056;-58
2022/03/04 11:31:15;;;;;;;;;;;;;;;0.61;56.57;98668.41;5049727;28;19925;-59
2022/03/04 11:33:46;;;;;;;;;;;;;;;0.60;56.08;98654.56;5050543;28;19935;-61
2022/03/04 11:36:19;;;;;;;;;;;;;;;0.83;55.63;98656.13;5049552;28;20446;-61
2022/03/04 11:38:47;;;;;;;;;;;;;;;0.80;56.29;98674.78;5050353;28;19935;-59
2022/03/04 11:41:17;;;;;;;;;;;;;;;0.99;55.58;98663.63;5050535;28;19974;-60
2022/03/04 11:43:49;;;;;;;;;;;;;;;0.98;56.01;98656.81;5049243;28;20002;-59
2022/03/04 11:46:22;;;;;;;;;;;;;;;0.99;55.24;98692.34;5055146;28;19970;-58
2022/03/04 11:48:47;;;;;;;;;;;;;;;0.85;55.72;98669.75;5069476;28;19976;-59
2022/03/04 11:51:17;;;;;;;;;;;;;;;0.92;54.69;98680.25;5069856;28;20408;-57
2022/03/04 11:53:43;;;;;;;;;;;;;;;0.71;55.54;98666.28;5063748;28;19929;-58
2022/03/04 11:56:12;;;;;;;;;;;;;;;0.77;55.09;98675.97;5060063;28;19933;-59
2022/03/04 11:58:54;;;;;;;;;;;;;;;0.71;55.39;98686.31;5049261;28;19929;-59
2022/03/04 12:01:25;;;;;;;;;;;;;;;0.86;55.00;98679.22;5036327;28;19925;-59
2022/03/04 12:04:07;;;;;;;;;;;;;;;0.61;55.70;98681.47;5049984;28;19933;-60
2022/03/04 12:06:32;;;;;;;;;;;;;;;0.58;56.09;98664.38;5050153;28;20102;-60
2022/03/04 12:09:18;;;;;;;;;;;;;;;0.70;56.27;98680.31;5019151;28;20340;-62
2022/03/04 12:12:03;;;;;;;;;;;;;;;0.86;55.80;98679.22;5058015;28;19924;-59
2022/03/04 12:14:29;;;;;;;;;;;;;;;0.82;55.26;98688.41;5049506;28;19928;-60
2022/03/04 12:16:56;;;;;;;;;;;;;;;0.80;55.37;98682.59;5048099;28;20121;-61
2022/03/04 12:19:28;;;;;;;;;;;;;;;0.80;56.23;98675.56;5047023;28;19955;-60
2022/03/04 12:21:56;;;;;;;;;;;;;;;0.81;55.61;98676.38;5054810;28;19970;-60
2022/03/04 12:24:27;;;;;;;;;;;;;;;0.88;54.65;98693.69;5069611;28;20022;-60
2022/03/04 12:26:53;;;;;;;;;;;;;;;0.67;56.08;98665.03;5058691;28;19924;-58
2022/03/04 12:29:18;;;;;;;;;;;;;;;0.65;56.74;98665.25;5060559;28;19935;-59
2022/03/04 12:31:44;;;;;;;;;;;;;;;0.76;55.99;98673.53;5065522;28;20039;-60
2022/03/04 12:34:22;;;;;;;;;;;;;;;0.72;56.24;98688.75;5052892;28;20460;-60
2022/03/04 12:36:49;;;;;;;;;;;;;;;0.79;56.08;98673.16;5049709;28;19932;-60
2022/03/04 12:39:16;;;;;;;;;;;;;;;0.76;56.05;98684.75;5049629;28;19929;-60
2022/03/04 12:41:42;;;;;;;;;;;;;;;0.70;55.93;98672.50;5048750;28;20704;-59
2022/03/04 12:44:08;;;;;;;;;;;;;;;0.66;55.95;98676.47;5050749;28;20015;-60
2022/03/04 12:46:35;;;;;;;;;;;;;;;0.55;56.73;98685.63;5049817;28;19927;-61
2022/03/04 12:49:01;;;;;;;;;;;;;;;0.70;55.91;98667.28;5047315;28;20031;-60